createdAt,value
2019-06-01T00:00:12.356Z,14.80
2019-06-01T00:02:45.334Z,14.70
2019-06-01T00:05:14.749Z,14.70
2019-06-01T00:07:44.930Z,14.60
2019-06-01T00:10:14.878Z,14.70
2019-06-01T00:12:45.302Z,14.60
2019-06-01T00:15:15.647Z,14.60
2019-06-01T00:17:45.998Z,14.50
2019-06-01T00:20:15.767Z,14.50
2019-06-01T00:22:45.494Z,14.40
2019-06-01T00:25:15.044Z,14.40
2019-06-01T00:27:44.768Z,14.40
2019-06-01T00:30:26.531Z,14.40
2019-06-01T00:32:47.307Z,14.30
2019-06-01T00:35:18.091Z,14.30
2019-06-01T00:37:47.670Z,14.20
2019-06-01T00:40:17.686Z,14.20
2019-06-01T00:42:48.296Z,14.20
2019-06-01T00:45:17.880Z,14.20
2019-06-01T00:47:47.330Z,14.10
2019-06-01T00:50:17.018Z,14.10
2019-06-01T00:52:47.191Z,14.00
2019-06-01T00:55:18.852Z,14.00
2019-06-01T00:57:49.704Z,13.90
2019-06-01T01:00:20.191Z,13.90
2019-06-01T01:02:50.298Z,13.80
2019-06-01T01:05:21.636Z,13.80
2019-06-01T01:07:51.763Z,13.80
2019-06-01T01:10:23.354Z,13.80
2019-06-01T01:13:06.388Z,13.80
2019-06-01T01:15:36.639Z,13.80
2019-06-01T01:18:08.322Z,13.80
2019-06-01T01:20:38.610Z,13.80
2019-06-01T01:23:08.898Z,13.80
2019-06-01T01:25:38.423Z,13.80
2019-06-01T01:28:07.982Z,13.80
2019-06-01T01:30:37.514Z,13.70
2019-06-01T01:33:06.963Z,13.70
2019-06-01T01:35:36.563Z,13.70
2019-06-01T01:38:06.092Z,13.70
2019-06-01T01:40:35.536Z,13.70
2019-06-01T01:43:05.077Z,13.70
2019-06-01T01:45:34.588Z,13.70
2019-06-01T01:48:04.096Z,13.60
2019-06-01T01:50:33.548Z,13.60
2019-06-01T01:53:03.367Z,13.60
2019-06-01T01:55:33.503Z,13.60
2019-06-01T01:58:03.046Z,13.50
2019-06-01T02:00:38.799Z,13.40
2019-06-01T02:03:09.295Z,13.40
2019-06-01T02:05:38.882Z,13.40
2019-06-01T02:08:09.124Z,13.40
2019-06-01T02:10:38.636Z,13.30
2019-06-01T02:13:09.367Z,13.30
2019-06-01T02:15:41.663Z,13.30
2019-06-01T02:18:11.811Z,13.30
2019-06-01T02:20:41.442Z,13.30
2019-06-01T02:23:10.974Z,13.20
2019-06-01T02:25:40.487Z,13.20
2019-06-01T02:28:09.952Z,13.10
2019-06-01T02:30:39.439Z,13.10
2019-06-01T02:33:08.884Z,13.00
2019-06-01T02:35:38.346Z,13.00
2019-06-01T02:38:07.797Z,13.00
2019-06-01T02:40:38.934Z,13.00
2019-06-01T02:43:08.406Z,12.90
2019-06-01T02:45:37.989Z,12.90
2019-06-01T02:48:07.563Z,12.90
2019-06-01T02:50:37.232Z,12.90
2019-06-01T02:53:07.073Z,12.90
2019-06-01T02:55:36.514Z,12.90
2019-06-01T02:58:06.702Z,12.90
2019-06-01T03:00:49.636Z,12.90
2019-06-01T03:03:19.170Z,12.80
2019-06-01T03:05:50.058Z,12.80
2019-06-01T03:08:20.542Z,12.80
2019-06-01T03:10:52.630Z,12.70
2019-06-01T03:13:25.061Z,12.70
2019-06-01T03:15:58.163Z,12.70
2019-06-01T03:18:30.938Z,12.70
2019-06-01T03:21:04.693Z,12.70
2019-06-01T03:23:35.443Z,12.70
2019-06-01T03:26:08.699Z,12.60
2019-06-01T03:28:43.623Z,12.60
2019-06-01T03:31:13.398Z,12.50
2019-06-01T03:33:43.023Z,12.40
2019-06-01T03:36:13.149Z,12.40
2019-06-01T03:38:42.918Z,12.40
2019-06-01T03:41:12.441Z,12.30
2019-06-01T03:43:41.886Z,12.30
2019-06-01T03:46:11.363Z,12.40
2019-06-01T03:48:40.835Z,12.40
2019-06-01T03:51:10.282Z,12.40
2019-06-01T03:53:39.751Z,12.40
2019-06-01T03:56:09.211Z,12.40
2019-06-01T03:58:38.670Z,12.40
2019-06-01T04:01:09.146Z,12.40
2019-06-01T04:03:38.910Z,12.40
2019-06-01T04:06:09.440Z,12.40
2019-06-01T04:08:39.126Z,12.40
2019-06-01T04:11:09.676Z,12.40
2019-06-01T04:13:39.531Z,12.40
2019-06-01T04:16:10.025Z,12.40
2019-06-01T04:18:39.655Z,12.40
2019-06-01T04:21:10.268Z,12.40
2019-06-01T04:23:40.108Z,12.50
2019-06-01T04:26:10.293Z,12.50
2019-06-01T04:28:40.039Z,12.60
2019-06-01T04:31:10.868Z,12.60
2019-06-01T04:33:40.450Z,12.70
2019-06-01T04:36:10.921Z,12.70
2019-06-01T04:38:40.563Z,12.80
2019-06-01T04:41:10.007Z,12.80
2019-06-01T04:43:39.459Z,12.90
2019-06-01T04:46:10.236Z,12.90
2019-06-01T04:48:40.073Z,13.00
2019-06-01T04:51:11.404Z,13.00
2019-06-01T04:53:40.614Z,13.10
2019-06-01T04:56:11.130Z,13.20
2019-06-01T04:58:40.631Z,13.20
2019-06-01T05:01:10.925Z,13.30
2019-06-01T05:03:40.422Z,13.40
2019-06-01T05:06:11.240Z,13.60
2019-06-01T05:08:40.933Z,13.70
2019-06-01T05:11:11.734Z,13.70
2019-06-01T05:13:41.396Z,13.80
2019-06-01T05:16:12.945Z,13.90
2019-06-01T05:18:41.928Z,14.00
2019-06-01T05:21:12.624Z,14.10
2019-06-01T05:23:42.543Z,14.20
2019-06-01T05:26:13.145Z,14.30
2019-06-01T05:28:42.779Z,14.40
2019-06-01T05:31:14.939Z,14.50
2019-06-01T05:33:43.426Z,14.60
2019-06-01T05:36:14.151Z,14.70
2019-06-01T05:38:43.838Z,14.70
2019-06-01T05:41:14.847Z,14.80
2019-06-01T05:43:44.358Z,14.90
2019-06-01T05:46:14.057Z,15.00
2019-06-01T05:48:43.587Z,15.20
2019-06-01T05:51:15.546Z,15.30
2019-06-01T05:53:44.127Z,15.40
2019-06-01T05:56:14.742Z,15.50
2019-06-01T05:58:44.381Z,15.60
2019-06-01T06:01:14.709Z,15.70
2019-06-01T06:03:44.256Z,15.80
2019-06-01T06:06:15.807Z,15.90
2019-06-01T06:08:45.323Z,16.10
2019-06-01T06:11:14.952Z,16.10
2019-06-01T06:13:44.538Z,16.20
2019-06-01T06:16:14.056Z,16.30
2019-06-01T06:18:43.515Z,16.30
2019-06-01T06:21:13.943Z,16.40
2019-06-01T06:23:43.506Z,16.50
2019-06-01T06:26:15.209Z,16.60
2019-06-01T06:28:44.039Z,16.70
2019-06-01T06:31:13.539Z,16.80
2019-06-01T06:33:55.464Z,16.90
2019-06-01T06:36:14.137Z,16.90
2019-06-01T06:38:43.586Z,17.00
2019-06-01T06:41:13.956Z,17.10
2019-06-01T06:43:44.564Z,17.20
2019-06-01T06:46:14.549Z,17.30
2019-06-01T06:48:44.447Z,17.30
2019-06-01T06:51:15.078Z,17.40
2019-06-01T06:53:44.754Z,17.50
2019-06-01T06:56:14.190Z,17.60
2019-06-01T06:58:43.632Z,17.60
2019-06-01T07:01:13.108Z,17.70
2019-06-01T07:03:42.560Z,17.80
2019-06-01T07:06:12.041Z,17.80
2019-06-01T07:08:41.475Z,17.90
2019-06-01T07:11:12.047Z,17.90
2019-06-01T07:13:41.867Z,18.10
2019-06-01T07:16:11.297Z,18.20
2019-06-01T07:18:40.760Z,18.20
2019-06-01T07:21:10.205Z,18.30
2019-06-01T07:23:40.011Z,18.40
2019-06-01T07:26:09.502Z,18.50
2019-06-01T07:28:39.908Z,18.60
2019-06-01T07:31:09.362Z,18.60
2019-06-01T07:33:38.807Z,18.60
2019-06-01T07:36:08.283Z,18.70
2019-06-01T07:38:38.988Z,18.70
2019-06-01T07:41:08.439Z,18.80
2019-06-01T07:43:37.967Z,18.90
2019-06-01T07:46:07.435Z,19.00
2019-06-01T07:48:36.899Z,19.00
2019-06-01T07:51:06.386Z,19.00
2019-06-01T07:53:35.847Z,19.20
2019-06-01T07:56:05.298Z,19.30
2019-06-01T07:58:34.825Z,19.30
2019-06-01T08:01:04.535Z,19.30
2019-06-01T08:03:35.231Z,19.30
2019-06-01T08:06:04.959Z,19.20
2019-06-01T08:08:34.413Z,19.30
2019-06-01T08:11:03.867Z,19.40
2019-06-01T08:13:35.738Z,19.40
2019-06-01T08:16:04.534Z,19.50
2019-06-01T08:18:33.982Z,19.50
2019-06-01T08:21:03.426Z,19.50
2019-06-01T08:23:32.898Z,19.50
2019-06-01T08:26:02.336Z,19.70
2019-06-01T08:28:32.759Z,19.80
2019-06-01T08:31:02.465Z,19.80
2019-06-01T08:33:33.569Z,19.90
2019-06-01T08:36:02.987Z,20.00
2019-06-01T08:38:33.678Z,20.10
2019-06-01T08:41:03.296Z,20.20
2019-06-01T08:43:33.906Z,20.30
2019-06-01T08:46:03.871Z,20.40
2019-06-01T08:48:34.082Z,20.50
2019-06-01T08:51:03.667Z,20.50
2019-06-01T08:53:34.187Z,20.50
2019-06-01T08:56:03.853Z,20.60
2019-06-01T08:58:34.710Z,20.60
2019-06-01T09:01:05.040Z,20.60
2019-06-01T09:03:39.906Z,20.60
2019-06-01T09:06:05.663Z,20.70
2019-06-01T09:08:35.194Z,20.90
2019-06-01T09:11:05.827Z,21.10
2019-06-01T09:13:35.560Z,21.20
2019-06-01T09:16:05.971Z,21.20
2019-06-01T09:18:35.842Z,21.30
2019-06-01T09:21:05.722Z,21.30
2019-06-01T09:23:37.116Z,21.30
2019-06-01T09:26:06.364Z,21.40
2019-06-01T09:28:36.225Z,21.60
2019-06-01T09:31:05.961Z,21.60
2019-06-01T09:33:36.868Z,21.60
2019-06-01T09:36:06.732Z,21.50
2019-06-01T09:38:36.191Z,21.90
2019-06-01T09:41:05.707Z,22.00
2019-06-01T09:43:35.170Z,22.10
2019-06-01T09:46:04.881Z,22.10
2019-06-01T09:48:35.553Z,22.20
2019-06-01T09:51:05.383Z,22.20
2019-06-01T09:53:35.983Z,22.20
2019-06-01T09:56:05.932Z,22.30
2019-06-01T09:58:36.766Z,22.20
2019-06-01T10:01:06.699Z,22.30
2019-06-01T10:03:36.538Z,22.50
2019-06-01T10:06:06.847Z,22.50
2019-06-01T10:08:36.438Z,22.70
2019-06-01T10:11:05.871Z,22.70
2019-06-01T10:13:36.363Z,22.80
2019-06-01T10:16:05.982Z,22.70
2019-06-01T10:18:36.949Z,22.90
2019-06-01T10:21:06.770Z,23.00
2019-06-01T10:23:36.648Z,23.10
2019-06-01T10:26:06.270Z,23.10
2019-06-01T10:28:35.828Z,23.00
2019-06-01T10:31:06.563Z,22.90
2019-06-01T10:33:37.384Z,23.10
2019-06-01T10:36:19.922Z,23.30
2019-06-01T10:38:39.364Z,23.20
2019-06-01T10:41:09.151Z,23.20
2019-06-01T10:43:39.742Z,23.20
2019-06-01T10:46:09.363Z,23.20
2019-06-01T10:48:40.025Z,23.40
2019-06-01T10:51:09.827Z,23.40
2019-06-01T10:53:41.176Z,23.50
2019-06-01T10:56:10.550Z,23.70
2019-06-01T10:58:56.695Z,23.80
2019-06-01T11:01:11.080Z,24.10
2019-06-01T11:03:40.774Z,24.00
2019-06-01T11:06:10.471Z,23.90
2019-06-01T11:08:41.068Z,24.10
2019-06-01T11:11:10.574Z,24.30
2019-06-01T11:13:41.051Z,24.40
2019-06-01T11:16:10.803Z,24.20
2019-06-01T11:18:41.762Z,24.20
2019-06-01T11:21:11.514Z,24.40
2019-06-01T11:23:43.772Z,24.50
2019-06-01T11:26:12.069Z,24.60
2019-06-01T11:28:42.238Z,24.90
2019-06-01T11:31:11.751Z,24.70
2019-06-01T11:33:42.039Z,24.60
2019-06-01T11:36:11.895Z,24.50
2019-06-01T11:38:42.455Z,24.60
2019-06-01T11:41:11.988Z,24.90
2019-06-01T11:43:42.649Z,24.90
2019-06-01T11:46:12.493Z,25.10
2019-06-01T11:48:43.360Z,25.00
2019-06-01T11:51:12.888Z,25.00
2019-06-01T11:53:43.446Z,25.00
2019-06-01T11:56:13.172Z,25.10
2019-06-01T11:58:43.408Z,25.50
2019-06-01T12:01:13.187Z,25.40
2019-06-01T12:03:43.836Z,25.50
2019-06-01T12:06:13.605Z,25.60
2019-06-01T12:08:44.067Z,25.70
2019-06-01T12:11:13.786Z,25.50
2019-06-01T12:13:44.318Z,25.20
2019-06-01T12:16:14.254Z,25.20
2019-06-01T12:18:44.722Z,25.50
2019-06-01T12:21:14.377Z,25.90
2019-06-01T12:23:43.843Z,25.90
2019-06-01T12:26:13.279Z,26.00
2019-06-01T12:28:43.782Z,26.20
2019-06-01T12:31:13.792Z,26.20
2019-06-01T12:33:44.187Z,26.10
2019-06-01T12:36:13.895Z,26.20
2019-06-01T12:38:52.429Z,26.30
2019-06-01T12:41:23.292Z,26.30
2019-06-01T12:44:09.857Z,26.30
2019-06-01T12:46:39.840Z,26.40
2019-06-01T12:49:09.949Z,26.20
2019-06-01T12:51:40.549Z,26.30
2019-06-01T12:54:11.398Z,26.50
2019-06-01T12:56:41.049Z,26.50
2019-06-01T12:59:10.413Z,26.60
2019-06-01T13:01:40.941Z,26.80
2019-06-01T13:04:10.791Z,26.70
2019-06-01T13:06:40.734Z,26.50
2019-06-01T13:09:10.557Z,26.40
2019-06-01T13:11:41.199Z,26.60
2019-06-01T13:14:10.850Z,26.80
2019-06-01T13:16:43.998Z,26.90
2019-06-01T13:19:11.372Z,26.70
2019-06-01T13:21:41.343Z,26.70
2019-06-01T13:24:11.086Z,26.80
2019-06-01T13:26:41.757Z,26.80
2019-06-01T13:29:11.743Z,26.60
2019-06-01T13:31:42.041Z,26.40
2019-06-01T13:34:11.639Z,26.50
2019-06-01T13:36:42.398Z,26.60
2019-06-01T13:39:12.111Z,27.00
2019-06-01T13:41:42.884Z,27.10
2019-06-01T13:44:12.806Z,26.90
2019-06-01T13:46:43.379Z,27.20
2019-06-01T13:49:13.010Z,27.60
2019-06-01T13:51:43.874Z,27.80
2019-06-01T13:54:13.812Z,27.90
2019-06-01T13:56:44.640Z,28.10
2019-06-01T13:59:14.248Z,28.50
2019-06-01T14:01:45.147Z,28.70
2019-06-01T14:04:14.605Z,29.10
2019-06-01T14:06:45.141Z,29.40
2019-06-01T14:09:14.879Z,29.70
2019-06-01T14:11:45.287Z,29.90
2019-06-01T14:14:14.911Z,29.80
2019-06-01T14:16:45.473Z,29.50
2019-06-01T14:19:15.087Z,29.20
2019-06-01T14:21:45.696Z,28.80
2019-06-01T14:24:15.495Z,29.10
2019-06-01T14:26:46.040Z,28.80
2019-06-01T14:29:15.596Z,28.40
2019-06-01T14:31:46.459Z,28.30
2019-06-01T14:34:16.081Z,28.20
2019-06-01T14:36:46.423Z,28.10
2019-06-01T14:39:16.190Z,28.10
2019-06-01T14:41:46.609Z,28.60
2019-06-01T14:44:16.452Z,29.20
2019-06-01T14:46:55.075Z,29.90
2019-06-01T14:49:16.965Z,29.90
2019-06-01T14:51:47.515Z,30.00
2019-06-01T14:54:18.339Z,29.80
2019-06-01T14:56:47.783Z,30.10
2019-06-01T14:59:17.325Z,30.30
2019-06-01T15:01:48.055Z,30.90
2019-06-01T15:04:17.839Z,31.00
2019-06-01T15:06:48.172Z,30.60
2019-06-01T15:09:19.697Z,30.20
2019-06-01T15:11:49.355Z,30.60
2019-06-01T15:14:20.355Z,31.20
2019-06-01T15:16:49.832Z,31.60
2019-06-01T15:19:19.275Z,32.20
2019-06-01T15:21:49.899Z,31.90
2019-06-01T15:24:19.600Z,31.90
2019-06-01T15:26:50.335Z,32.00
2019-06-01T15:29:19.999Z,31.10
2019-06-01T15:31:51.133Z,31.30
2019-06-01T15:34:20.743Z,31.40
2019-06-01T15:36:51.449Z,31.90
2019-06-01T15:39:24.564Z,32.00
2019-06-01T15:41:53.077Z,32.00
2019-06-01T15:44:22.583Z,32.00
2019-06-01T15:46:53.513Z,32.10
2019-06-01T15:49:23.063Z,32.80
2019-06-01T15:51:53.576Z,33.50
2019-06-01T15:54:23.160Z,33.70
2019-06-01T15:56:52.616Z,34.10
2019-06-01T15:59:22.050Z,34.30
2019-06-01T16:01:52.883Z,34.60
2019-06-01T16:04:22.666Z,34.90
2019-06-01T16:06:53.065Z,35.00
2019-06-01T16:09:22.658Z,35.20
2019-06-01T16:11:53.360Z,35.30
2019-06-01T16:14:22.935Z,35.70
2019-06-01T16:16:53.725Z,35.70
2019-06-01T16:19:23.563Z,35.80
2019-06-01T16:21:53.718Z,35.50
2019-06-01T16:24:23.371Z,35.50
2019-06-01T16:26:53.972Z,35.50
2019-06-01T16:29:23.867Z,35.70
2019-06-01T16:31:54.518Z,35.90
2019-06-01T16:34:24.263Z,36.20
2019-06-01T16:36:54.806Z,36.10
2019-06-01T16:39:24.403Z,35.90
2019-06-01T16:41:55.427Z,35.80
2019-06-01T16:44:25.223Z,35.30
2019-06-01T16:46:55.554Z,35.10
2019-06-01T16:49:27.293Z,35.10
2019-06-01T16:52:01.137Z,35.50
2019-06-01T16:54:30.756Z,35.30
2019-06-01T16:57:00.190Z,35.50
2019-06-01T16:59:29.639Z,35.80
2019-06-01T17:01:59.144Z,35.30
2019-06-01T17:04:28.611Z,34.70
2019-06-01T17:06:58.661Z,34.30
2019-06-01T17:09:28.371Z,34.50
2019-06-01T17:11:58.767Z,34.40
2019-06-01T17:14:28.423Z,34.50
2019-06-01T17:16:58.932Z,35.00
2019-06-01T17:19:28.681Z,35.10
2019-06-01T17:21:59.301Z,34.80
2019-06-01T17:24:29.059Z,34.80
2019-06-01T17:26:59.724Z,34.80
2019-06-01T17:29:29.550Z,34.40
2019-06-01T17:32:14.338Z,34.10
2019-06-01T17:34:30.142Z,34.20
2019-06-01T17:37:00.868Z,34.10
2019-06-01T17:39:30.317Z,34.30
2019-06-01T17:42:00.344Z,34.70
2019-06-01T17:44:30.562Z,34.60
2019-06-01T17:47:00.039Z,35.00
2019-06-01T17:49:29.458Z,35.60
2019-06-01T17:51:58.899Z,35.90
2019-06-01T17:54:28.487Z,35.60
2019-06-01T17:56:58.111Z,35.80
2019-06-01T17:59:27.579Z,35.70
2019-06-01T18:01:57.135Z,35.80
2019-06-01T18:04:26.651Z,35.80
2019-06-01T18:06:56.194Z,35.60
2019-06-01T18:09:25.965Z,35.70
2019-06-01T18:11:55.555Z,35.60
2019-06-01T18:14:25.179Z,35.70
2019-06-01T18:16:54.675Z,36.20
2019-06-01T18:19:24.191Z,36.60
2019-06-01T18:21:53.640Z,36.70
2019-06-01T18:24:23.187Z,36.60
2019-06-01T18:26:52.691Z,35.80
2019-06-01T18:29:22.142Z,35.10
2019-06-01T18:31:52.301Z,35.30
2019-06-01T18:34:21.871Z,35.90
2019-06-01T18:36:51.396Z,36.10
2019-06-01T18:39:20.855Z,35.30
2019-06-01T18:41:50.322Z,35.10
2019-06-01T18:44:20.915Z,35.10
2019-06-01T18:46:50.447Z,35.20
2019-06-01T18:49:19.891Z,34.80
2019-06-01T18:51:49.619Z,33.90
2019-06-01T18:54:19.140Z,34.30
2019-06-01T18:56:48.594Z,34.50
2019-06-01T18:59:18.047Z,34.50
2019-06-01T19:01:47.483Z,34.20
2019-06-01T19:04:16.927Z,34.30
2019-06-01T19:06:46.652Z,34.60
2019-06-01T19:09:16.107Z,34.80
2019-06-01T19:11:45.495Z,34.90
2019-06-01T19:14:16.058Z,34.50
2019-06-01T19:16:45.618Z,33.90
2019-06-01T19:19:15.098Z,33.30
2019-06-01T19:21:44.535Z,32.70
2019-06-01T19:24:14.698Z,32.20
2019-06-01T19:26:44.344Z,31.70
2019-06-01T19:29:14.901Z,31.30
2019-06-01T19:31:45.223Z,31.00
2019-06-01T19:34:15.123Z,30.80
2019-06-01T19:36:46.496Z,30.60
2019-06-01T19:39:17.330Z,30.40
2019-06-01T19:41:46.875Z,30.10
2019-06-01T19:44:17.861Z,30.00
2019-06-01T19:46:48.686Z,29.70
2019-06-01T19:49:19.005Z,29.50
2019-06-01T19:51:48.703Z,29.40
2019-06-01T19:54:19.023Z,29.10
2019-06-01T19:56:48.515Z,28.80
2019-06-01T19:59:18.113Z,28.50
2019-06-01T20:01:47.820Z,28.30
2019-06-01T20:04:18.621Z,28.00
2019-06-01T20:06:48.288Z,27.80
2019-06-01T20:09:17.730Z,27.70
2019-06-01T20:12:01.038Z,27.50
2019-06-01T20:14:19.240Z,27.30
2019-06-01T20:16:49.835Z,27.00
2019-06-01T20:19:19.838Z,26.80
2019-06-01T20:21:49.522Z,26.60
2019-06-01T20:24:19.381Z,26.50
2019-06-01T20:26:49.613Z,26.40
2019-06-01T20:29:19.836Z,26.30
2019-06-01T20:31:49.661Z,26.20
2019-06-01T20:34:20.046Z,26.10
2019-06-01T20:36:49.655Z,26.10
2019-06-01T20:39:20.060Z,26.00
2019-06-01T20:41:49.842Z,25.90
2019-06-01T20:44:19.423Z,25.70
2019-06-01T20:46:48.960Z,25.60
2019-06-01T20:49:18.623Z,25.40
2019-06-01T20:51:48.264Z,25.30
2019-06-01T20:54:18.955Z,25.20
2019-06-01T20:56:48.675Z,25.10
2019-06-01T20:59:20.232Z,24.90
2019-06-01T21:01:50.128Z,24.70
2019-06-01T21:04:22.196Z,24.60
2019-06-01T21:06:52.011Z,24.50
2019-06-01T21:09:22.016Z,24.50
2019-06-01T21:11:52.259Z,24.40
2019-06-01T21:14:21.711Z,24.30
2019-06-01T21:16:51.343Z,24.20
2019-06-01T21:19:20.941Z,24.00
2019-06-01T21:21:50.385Z,23.90
2019-06-01T21:24:21.119Z,23.80
2019-06-01T21:26:50.670Z,23.70
2019-06-01T21:29:20.860Z,23.60
2019-06-01T21:31:50.915Z,23.50
2019-06-01T21:34:22.202Z,23.30
2019-06-01T21:36:51.626Z,23.10
2019-06-01T21:39:21.640Z,23.00
2019-06-01T21:41:51.775Z,22.90
2019-06-01T21:44:21.638Z,22.80
2019-06-01T21:46:51.650Z,22.80
2019-06-01T21:49:22.133Z,22.90
2019-06-01T21:51:53.079Z,22.90
2019-06-01T21:54:22.985Z,22.90
2019-06-01T21:56:53.691Z,22.90
2019-06-01T21:59:23.127Z,22.80
2019-06-01T22:01:52.735Z,22.70
2019-06-01T22:04:23.053Z,22.60
2019-06-01T22:06:53.817Z,22.50
2019-06-01T22:09:23.468Z,22.40
2019-06-01T22:11:53.276Z,22.30
2019-06-01T22:14:23.560Z,22.10
2019-06-01T22:16:53.006Z,21.90
2019-06-01T22:19:23.750Z,21.80
2019-06-01T22:21:53.503Z,21.60
2019-06-01T22:24:23.868Z,21.50
2019-06-01T22:26:53.612Z,21.40
2019-06-01T22:29:24.316Z,21.30
2019-06-01T22:31:54.055Z,21.20
2019-06-01T22:34:24.783Z,21.20
2019-06-01T22:36:54.509Z,21.10
2019-06-01T22:39:24.791Z,21.10
2019-06-01T22:41:54.303Z,21.00
2019-06-01T22:44:24.113Z,20.80
2019-06-01T22:46:53.802Z,20.80
2019-06-01T22:49:24.630Z,20.70
2019-06-01T22:51:55.354Z,20.60
2019-06-01T22:54:25.109Z,20.60
2019-06-01T22:56:55.801Z,20.50
2019-06-01T22:59:26.565Z,20.40
2019-06-01T23:01:57.179Z,20.40
2019-06-01T23:04:27.199Z,20.30
2019-06-01T23:06:56.859Z,20.20
2019-06-01T23:09:27.373Z,20.10
2019-06-01T23:11:56.988Z,20.10
2019-06-01T23:14:27.379Z,20.00
2019-06-01T23:16:57.073Z,19.90
2019-06-01T23:19:27.912Z,19.90
2019-06-01T23:21:57.737Z,19.80
2019-06-01T23:24:28.215Z,19.80
2019-06-01T23:26:57.650Z,19.80
2019-06-01T23:29:28.080Z,19.60
2019-06-01T23:31:57.751Z,19.70
2019-06-01T23:34:28.551Z,19.70
2019-06-01T23:36:58.292Z,19.70
2019-06-01T23:39:28.756Z,19.70
2019-06-01T23:41:58.450Z,19.70
2019-06-01T23:44:30.716Z,19.60
2019-06-01T23:46:58.947Z,19.50
2019-06-01T23:49:29.247Z,19.40
2019-06-01T23:51:58.932Z,19.30
2019-06-01T23:54:29.443Z,19.10
2019-06-01T23:56:59.091Z,19.00
2019-06-01T23:59:29.603Z,19.00
